Willisville, Indiana
Current Conditions -  °F | °C
As of 12:15 AM on Wednesday 26 Nov 2014 (Local Time) from KDCY Reporting Station
Overcast Overcast  
Wind Chill: -5°   Ceiling: 1400
Heat Index: -1°   Visibility: 10mi
Dew Point: -3°   Wind: 6mph
Humidity: 87%   Direction: 30°NNE
Pressure: 30.18"   Gusts: NA
Location:  38.4723°N, 87.3105°W
Report Text: KDCY 260615Z AUTO 03005KT 10SM OVC014 M01/M03 A3018 RMK AO2 T10141033
Loading
Personal Weather Stations






























Interactive Weather Map New forecast layout! Learn more

10-Day Weather Forecast

Advertisements
Track Severe Weather on mobile